< < Back
Terminal Aerodrome Forecast


Current Version              Previous Versions:   1  2  3  4  5  6  7  8  9  

Terminal Aerodrome Forecast

555
FTUS42 KGSP 232334 AAB
TAFCLT
TAF AMD
KCLT 232334Z 2400/2424 11013KT 3SM SHRA BR OVC005
      TEMPO 2400/2402 11013G22KT 5SM -TSRA BR OVC005CB
     FM240200 17013G20KT 2SM SHRA BR OVC003 WS020/19045KT
     FM240400 18013G23KT 5SM SHRA OVC003
     FM240800 20010G18KT P6SM OVC003
     FM241600 20014G20KT P6SM BKN060=



Latest METAR

305
SAUS70 KWBC 240700 RRD
MTRCLT
METAR KCLT 240652Z 21009G16KT 10SM FEW020 16/13 A2974 RMK AO2 SLP068
T01610128


USA.gov is the U.S. government's official web portal to all federal, state and local government web resources and services.